sensor_id;sensor_type;location;lat;lon;timestamp;temperature;humidity
69938;DHT22;57248;47.320;15.998;2022-10-16T00:00:44;8.88;96.01
69938;DHT22;57248;47.320;15.998;2022-10-16T00:03:23;8.79;96.47
69938;DHT22;57248;47.320;15.998;2022-10-16T00:05:59;8.86;96.14
69938;DHT22;57248;47.320;15.998;2022-10-16T00:08:39;8.88;95.65
69938;DHT22;57248;47.320;15.998;2022-10-16T00:11:16;8.86;95.94
69938;DHT22;57248;47.320;15.998;2022-10-16T00:13:50;8.76;96.62
69938;DHT22;57248;47.320;15.998;2022-10-16T00:16:23;8.84;96.08
69938;DHT22;57248;47.320;15.998;2022-10-16T00:18:56;8.79;95.79
69938;DHT22;57248;47.320;15.998;2022-10-16T00:21:23;8.76;96.51
69938;DHT22;57248;47.320;15.998;2022-10-16T00:24:14;8.78;96.04
69938;DHT22;57248;47.320;15.998;2022-10-16T00:26:49;8.72;96.12
69938;DHT22;57248;47.320;15.998;2022-10-16T00:29:21;8.75;96.14
69938;DHT22;57248;47.320;15.998;2022-10-16T00:31:53;8.75;95.84
69938;DHT22;57248;47.320;15.998;2022-10-16T00:34:25;8.68;95.92
69938;DHT22;57248;47.320;15.998;2022-10-16T00:36:57;8.62;95.81
69938;DHT22;57248;47.320;15.998;2022-10-16T00:39:29;8.57;95.94
69938;DHT22;57248;47.320;15.998;2022-10-16T00:42:01;8.55;95.56
69938;DHT22;57248;47.320;15.998;2022-10-16T00:44:49;8.54;96.25
69938;DHT22;57248;47.320;15.998;2022-10-16T00:47:29;8.51;95.65
69938;DHT22;57248;47.320;15.998;2022-10-16T00:50:13;8.47;95.60
69938;DHT22;57248;47.320;15.998;2022-10-16T00:52:50;8.40;96.13
69938;DHT22;57248;47.320;15.998;2022-10-16T00:55:23;8.40;95.65
69938;DHT22;57248;47.320;15.998;2022-10-16T00:57:56;8.33;95.56
69938;DHT22;57248;47.320;15.998;2022-10-16T01:00:28;8.34;95.79
69938;DHT22;57248;47.320;15.998;2022-10-16T01:03:27;8.34;96.39
69938;DHT22;57248;47.320;15.998;2022-10-16T01:09:11;8.36;95.54
69938;DHT22;57248;47.320;15.998;2022-10-16T01:11:54;8.31;95.76
69938;DHT22;57248;47.320;15.998;2022-10-16T01:14:46;8.24;95.78
69938;DHT22;57248;47.320;15.998;2022-10-16T01:17:26;8.29;96.20
69938;DHT22;57248;47.320;15.998;2022-10-16T01:31:34;8.29;96.13
69938;DHT22;57248;47.320;15.998;2022-10-16T01:34:33;8.37;96.56
69938;DHT22;57248;47.320;15.998;2022-10-16T01:37:12;8.38;96.60
69938;DHT22;57248;47.320;15.998;2022-10-16T01:39:47;8.44;96.76
69938;DHT22;57248;47.320;15.998;2022-10-16T01:42:24;8.43;96.45
69938;DHT22;57248;47.320;15.998;2022-10-16T01:44:59;8.47;96.31
69938;DHT22;57248;47.320;15.998;2022-10-16T01:47:31;8.44;96.54
69938;DHT22;57248;47.320;15.998;2022-10-16T01:50:05;8.44;96.46
69938;DHT22;57248;47.320;15.998;2022-10-16T01:52:40;8.45;96.43
69938;DHT22;57248;47.320;15.998;2022-10-16T01:55:08;8.43;96.49
69938;DHT22;57248;47.320;15.998;2022-10-16T01:57:45;8.43;96.50
69938;DHT22;57248;47.320;15.998;2022-10-16T02:00:20;8.45;96.85
69938;DHT22;57248;47.320;15.998;2022-10-16T02:02:49;8.44;96.82
69938;DHT22;57248;47.320;15.998;2022-10-16T02:05:28;8.53;96.82
69938;DHT22;57248;47.320;15.998;2022-10-16T02:08:08;8.57;96.92
69938;DHT22;57248;47.320;15.998;2022-10-16T02:10:40;8.57;96.78
69938;DHT22;57248;47.320;15.998;2022-10-16T02:13:22;8.58;96.72
69938;DHT22;57248;47.320;15.998;2022-10-16T02:15:55;8.53;97.38
69938;DHT22;57248;47.320;15.998;2022-10-16T02:18:27;8.48;97.47
69938;DHT22;57248;47.320;15.998;2022-10-16T02:21:17;8.50;97.33
69938;DHT22;57248;47.320;15.998;2022-10-16T02:24:02;8.54;96.95
69938;DHT22;57248;47.320;15.998;2022-10-16T02:29:12;8.40;96.37
69938;DHT22;57248;47.320;15.998;2022-10-16T02:31:49;8.34;97.07
69938;DHT22;57248;47.320;15.998;2022-10-16T02:34:24;8.33;97.44
69938;DHT22;57248;47.320;15.998;2022-10-16T02:36:58;8.38;97.17
69938;DHT22;57248;47.320;15.998;2022-10-16T02:39:31;8.44;96.92
69938;DHT22;57248;47.320;15.998;2022-10-16T02:41:57;8.45;97.30
69938;DHT22;57248;47.320;15.998;2022-10-16T02:44:28;8.50;97.08
69938;DHT22;57248;47.320;15.998;2022-10-16T02:47:00;8.47;97.42
69938;DHT22;57248;47.320;15.998;2022-10-16T02:49:32;8.40;97.28
69938;DHT22;57248;47.320;15.998;2022-10-16T02:52:04;8.50;97.48
69938;DHT22;57248;47.320;15.998;2022-10-16T02:54:36;8.54;97.54
69938;DHT22;57248;47.320;15.998;2022-10-16T02:57:08;8.55;97.44
69938;DHT22;57248;47.320;15.998;2022-10-16T02:59:40;8.60;97.49
69938;DHT22;57248;47.320;15.998;2022-10-16T03:02:19;8.67;97.50
69938;DHT22;57248;47.320;15.998;2022-10-16T03:04:51;8.65;97.38
69938;DHT22;57248;47.320;15.998;2022-10-16T03:07:30;8.74;97.84
69938;DHT22;57248;47.320;15.998;2022-10-16T03:10:09;8.74;97.92
69938;DHT22;57248;47.320;15.998;2022-10-16T03:12:41;8.81;98.12
69938;DHT22;57248;47.320;15.998;2022-10-16T03:15:13;8.78;97.70
69938;DHT22;57248;47.320;15.998;2022-10-16T03:17:39;8.74;97.48
69938;DHT22;57248;47.320;15.998;2022-10-16T03:20:11;8.67;98.20
69938;DHT22;57248;47.320;15.998;2022-10-16T03:22:43;8.64;98.17
69938;DHT22;57248;47.320;15.998;2022-10-16T03:25:09;8.68;98.16
69938;DHT22;57248;47.320;15.998;2022-10-16T03:27:40;8.75;97.64
69938;DHT22;57248;47.320;15.998;2022-10-16T03:30:12;8.76;97.49
69938;DHT22;57248;47.320;15.998;2022-10-16T03:32:38;8.68;97.94
69938;DHT22;57248;47.320;15.998;2022-10-16T03:35:10;8.76;97.75
69938;DHT22;57248;47.320;15.998;2022-10-16T03:37:42;8.81;97.94
69938;DHT22;57248;47.320;15.998;2022-10-16T03:40:14;8.85;97.63
69938;DHT22;57248;47.320;15.998;2022-10-16T03:42:46;8.89;97.67
69938;DHT22;57248;47.320;15.998;2022-10-16T03:45:18;8.93;97.96
69938;DHT22;57248;47.320;15.998;2022-10-16T03:47:50;8.92;97.81
69938;DHT22;57248;47.320;15.998;2022-10-16T03:50:22;8.91;98.23
69938;DHT22;57248;47.320;15.998;2022-10-16T03:52:54;8.92;97.89
69938;DHT22;57248;47.320;15.998;2022-10-16T03:55:27;8.92;97.66
69938;DHT22;57248;47.320;15.998;2022-10-16T03:57:59;8.88;97.57
69938;DHT22;57248;47.320;15.998;2022-10-16T04:00:31;8.86;97.70
69938;DHT22;57248;47.320;15.998;2022-10-16T04:03:03;8.88;97.53
69938;DHT22;57248;47.320;15.998;2022-10-16T04:05:42;8.81;97.33
69938;DHT22;57248;47.320;15.998;2022-10-16T04:08:14;8.76;98.01
69938;DHT22;57248;47.320;15.998;2022-10-16T04:10:46;8.74;97.96
69938;DHT22;57248;47.320;15.998;2022-10-16T04:13:18;8.78;97.82
69938;DHT22;57248;47.320;15.998;2022-10-16T04:15:45;8.74;98.19
69938;DHT22;57248;47.320;15.998;2022-10-16T04:18:17;8.75;97.86
69938;DHT22;57248;47.320;15.998;2022-10-16T04:20:43;8.78;97.85
69938;DHT22;57248;47.320;15.998;2022-10-16T04:23:14;8.76;97.61
69938;DHT22;57248;47.320;15.998;2022-10-16T04:25:46;8.75;97.40
69938;DHT22;57248;47.320;15.998;2022-10-16T04:28:18;8.78;97.85
69938;DHT22;57248;47.320;15.998;2022-10-16T04:30:50;8.81;98.17
69938;DHT22;57248;47.320;15.998;2022-10-16T04:33:22;8.84;98.04
69938;DHT22;57248;47.320;15.998;2022-10-16T04:36:01;8.84;98.39
69938;DHT22;57248;47.320;15.998;2022-10-16T04:38:33;8.88;98.50
69938;DHT22;57248;47.320;15.998;2022-10-16T04:40:59;8.88;98.23
69938;DHT22;57248;47.320;15.998;2022-10-16T04:43:31;8.99;99.02
69938;DHT22;57248;47.320;15.998;2022-10-16T04:46:03;9.01;98.39
69938;DHT22;57248;47.320;15.998;2022-10-16T04:48:36;8.96;97.99
69938;DHT22;57248;47.320;15.998;2022-10-16T04:51:08;8.95;97.94
69938;DHT22;57248;47.320;15.998;2022-10-16T04:53:40;8.93;97.98
69938;DHT22;57248;47.320;15.998;2022-10-16T04:56:12;8.95;97.90
69938;DHT22;57248;47.320;15.998;2022-10-16T04:58:44;8.95;97.55
69938;DHT22;57248;47.320;15.998;2022-10-16T05:01:10;8.98;97.71
69938;DHT22;57248;47.320;15.998;2022-10-16T05:03:41;8.96;98.74
69938;DHT22;57248;47.320;15.998;2022-10-16T05:06:28;9.02;98.84
69938;DHT22;57248;47.320;15.998;2022-10-16T05:09:00;9.01;98.28
69938;DHT22;57248;47.320;15.998;2022-10-16T05:11:33;10.79;99.99
69938;DHT22;57248;47.320;15.998;2022-10-16T05:14:05;9.88;97.57
69938;DHT22;57248;47.320;15.998;2022-10-16T05:16:39;9.60;97.26
69938;DHT22;57248;47.320;15.998;2022-10-16T05:19:04;9.43;97.31
69938;DHT22;57248;47.320;15.998;2022-10-16T05:21:36;9.40;97.17
69938;DHT22;57248;47.320;15.998;2022-10-16T05:24:08;9.32;96.94
69938;DHT22;57248;47.320;15.998;2022-10-16T05:26:40;9.32;97.57
69938;DHT22;57248;47.320;15.998;2022-10-16T05:29:06;9.32;97.45
69938;DHT22;57248;47.320;15.998;2022-10-16T05:31:37;9.33;97.87
69938;DHT22;57248;47.320;15.998;2022-10-16T05:34:09;9.29;97.64
69938;DHT22;57248;47.320;15.998;2022-10-16T05:36:41;9.24;97.68
69938;DHT22;57248;47.320;15.998;2022-10-16T05:39:15;9.33;97.68
69938;DHT22;57248;47.320;15.998;2022-10-16T05:41:49;9.36;97.66
69938;DHT22;57248;47.320;15.998;2022-10-16T05:44:21;9.43;97.31
69938;DHT22;57248;47.320;15.998;2022-10-16T05:46:47;9.43;97.74
69938;DHT22;57248;47.320;15.998;2022-10-16T05:49:18;9.44;97.25
69938;DHT22;57248;47.320;15.998;2022-10-16T05:51:50;9.44;97.41
69938;DHT22;57248;47.320;15.998;2022-10-16T05:54:22;9.65;96.69
69938;DHT22;57248;47.320;15.998;2022-10-16T05:56:54;9.85;96.02
69938;DHT22;57248;47.320;15.998;2022-10-16T05:59:26;9.75;96.57
69938;DHT22;57248;47.320;15.998;2022-10-16T06:01:58;9.71;97.30
69938;DHT22;57248;47.320;15.998;2022-10-16T06:04:44;10.04;96.05
69938;DHT22;57248;47.320;15.998;2022-10-16T06:07:16;10.26;95.49
69938;DHT22;57248;47.320;15.998;2022-10-16T06:09:49;10.32;95.44
69938;DHT22;57248;47.320;15.998;2022-10-16T06:12:21;10.48;94.61
69938;DHT22;57248;47.320;15.998;2022-10-16T06:14:53;10.64;94.05
69938;DHT22;57248;47.320;15.998;2022-10-16T06:17:19;10.94;93.66
69938;DHT22;57248;47.320;15.998;2022-10-16T06:19:50;11.11;93.39
69938;DHT22;57248;47.320;15.998;2022-10-16T06:22:22;11.46;92.58
69938;DHT22;57248;47.320;15.998;2022-10-16T06:24:54;11.59;91.68
69938;DHT22;57248;47.320;15.998;2022-10-16T06:27:26;11.72;91.76
69938;DHT22;57248;47.320;15.998;2022-10-16T06:29:58;11.66;91.70
69938;DHT22;57248;47.320;15.998;2022-10-16T06:32:30;11.79;91.64
69938;DHT22;57248;47.320;15.998;2022-10-16T06:35:02;12.13;90.88
69938;DHT22;57248;47.320;15.998;2022-10-16T06:37:34;12.23;90.44
69938;DHT22;57248;47.320;15.998;2022-10-16T06:40:06;12.55;89.49
69938;DHT22;57248;47.320;15.998;2022-10-16T06:42:38;12.81;89.45
69938;DHT22;57248;47.320;15.998;2022-10-16T06:45:10;12.93;88.44
69938;DHT22;57248;47.320;15.998;2022-10-16T06:47:42;13.16;88.65
69938;DHT22;57248;47.320;15.998;2022-10-16T06:50:15;13.46;87.70
69938;DHT22;57248;47.320;15.998;2022-10-16T06:52:41;13.49;87.90
69938;DHT22;57248;47.320;15.998;2022-10-16T06:55:12;14.42;90.77
69938;DHT22;57248;47.320;15.998;2022-10-16T06:57:47;14.98;87.49
69938;DHT22;57248;47.320;15.998;2022-10-16T07:00:20;15.61;85.11
69938;DHT22;57248;47.320;15.998;2022-10-16T07:02:52;14.81;82.69
69938;DHT22;57248;47.320;15.998;2022-10-16T07:05:24;14.69;83.50
69938;DHT22;57248;47.320;15.998;2022-10-16T07:07:56;14.79;83.83
69938;DHT22;57248;47.320;15.998;2022-10-16T07:10:28;15.07;84.02
69938;DHT22;57248;47.320;15.998;2022-10-16T07:13:00;15.06;83.13
69938;DHT22;57248;47.320;15.998;2022-10-16T07:15:32;15.48;83.04
69938;DHT22;57248;47.320;15.998;2022-10-16T07:18:04;15.93;82.45
69938;DHT22;57248;47.320;15.998;2022-10-16T07:20:36;16.24;81.44
69938;DHT22;57248;47.320;15.998;2022-10-16T07:23:09;16.30;80.25
69938;DHT22;57248;47.320;15.998;2022-10-16T07:25:35;16.47;78.82
69938;DHT22;57248;47.320;15.998;2022-10-16T07:28:06;16.33;79.99
69938;DHT22;57248;47.320;15.998;2022-10-16T07:30:38;15.70;80.43
69938;DHT22;57248;47.320;15.998;2022-10-16T07:33:11;16.78;80.24
69938;DHT22;57248;47.320;15.998;2022-10-16T07:35:53;17.27;77.63
69938;DHT22;57248;47.320;15.998;2022-10-16T07:38:25;17.60;78.03
69938;DHT22;57248;47.320;15.998;2022-10-16T07:41:05;17.69;77.34
69938;DHT22;57248;47.320;15.998;2022-10-16T07:43:37;17.75;76.11
69938;DHT22;57248;47.320;15.998;2022-10-16T07:46:09;17.94;75.09
69938;DHT22;57248;47.320;15.998;2022-10-16T07:48:35;17.90;74.82
69938;DHT22;57248;47.320;15.998;2022-10-16T07:51:08;18.29;74.09
69938;DHT22;57248;47.320;15.998;2022-10-16T07:53:40;18.53;73.28
69938;DHT22;57248;47.320;15.998;2022-10-16T07:56:13;18.73;71.79
69938;DHT22;57248;47.320;15.998;2022-10-16T07:58:45;19.18;71.22
69938;DHT22;57248;47.320;15.998;2022-10-16T08:01:13;18.60;71.79
69938;DHT22;57248;47.320;15.998;2022-10-16T08:03:47;19.25;69.52
69938;DHT22;57248;47.320;15.998;2022-10-16T08:06:21;18.66;71.17
69938;DHT22;57248;47.320;15.998;2022-10-16T08:09:00;20.14;68.68
69938;DHT22;57248;47.320;15.998;2022-10-16T08:11:32;19.79;66.74
69938;DHT22;57248;47.320;15.998;2022-10-16T08:14:04;20.64;65.27
69938;DHT22;57248;47.320;15.998;2022-10-16T08:16:37;21.26;62.80
69938;DHT22;57248;47.320;15.998;2022-10-16T08:19:09;21.80;62.94
69938;DHT22;57248;47.320;15.998;2022-10-16T08:21:41;22.72;57.14
69938;DHT22;57248;47.320;15.998;2022-10-16T08:24:07;23.86;56.19
69938;DHT22;57248;47.320;15.998;2022-10-16T08:26:38;24.01;54.51
69938;DHT22;57248;47.320;15.998;2022-10-16T08:29:10;23.50;53.93
69938;DHT22;57248;47.320;15.998;2022-10-16T08:31:42;25.35;52.76
69938;DHT22;57248;47.320;15.998;2022-10-16T08:34:15;24.59;52.23
69938;DHT22;57248;47.320;15.998;2022-10-16T08:36:47;24.41;51.72
69938;DHT22;57248;47.320;15.998;2022-10-16T08:39:20;25.66;50.54
69938;DHT22;57248;47.320;15.998;2022-10-16T08:48:08;26.75;47.01
69938;DHT22;57248;47.320;15.998;2022-10-16T08:50:44;27.63;44.13
69938;DHT22;57248;47.320;15.998;2022-10-16T08:53:30;28.13;44.06
69938;DHT22;57248;47.320;15.998;2022-10-16T08:56:02;26.20;46.31
69938;DHT22;57248;47.320;15.998;2022-10-16T08:58:34;28.09;44.52
69938;DHT22;57248;47.320;15.998;2022-10-16T09:01:17;27.67;43.11
69938;DHT22;57248;47.320;15.998;2022-10-16T09:06:58;29.25;41.31
69938;DHT22;57248;47.320;15.998;2022-10-16T09:12:40;28.57;41.70
69938;DHT22;57248;47.320;15.998;2022-10-16T09:15:33;28.64;42.71
69938;DHT22;57248;47.320;15.998;2022-10-16T09:20:53;27.03;43.38
69938;DHT22;57248;47.320;15.998;2022-10-16T09:23:28;27.68;43.44
69938;DHT22;57248;47.320;15.998;2022-10-16T09:25:55;26.62;45.67
69938;DHT22;57248;47.320;15.998;2022-10-16T09:28:28;27.22;44.63
69938;DHT22;57248;47.320;15.998;2022-10-16T09:31:00;27.84;43.06
69938;DHT22;57248;47.320;15.998;2022-10-16T09:33:37;26.89;45.57
69938;DHT22;57248;47.320;15.998;2022-10-16T09:36:12;26.54;45.57
69938;DHT22;57248;47.320;15.998;2022-10-16T09:38:44;26.86;44.02
69938;DHT22;57248;47.320;15.998;2022-10-16T09:41:19;26.78;42.71
69938;DHT22;57248;47.320;15.998;2022-10-16T09:43:56;28.31;41.73
69938;DHT22;57248;47.320;15.998;2022-10-16T09:46:34;29.12;40.85
69938;DHT22;57248;47.320;15.998;2022-10-16T09:49:24;28.50;41.95
69938;DHT22;57248;47.320;15.998;2022-10-16T09:52:23;26.81;44.94
69938;DHT22;57248;47.320;15.998;2022-10-16T09:54:57;26.79;44.50
69938;DHT22;57248;47.320;15.998;2022-10-16T09:57:29;28.29;43.09
69938;DHT22;57248;47.320;15.998;2022-10-16T10:00:08;27.17;43.13
69938;DHT22;57248;47.320;15.998;2022-10-16T10:02:41;27.64;42.69
69938;DHT22;57248;47.320;15.998;2022-10-16T10:05:28;26.31;45.06
69938;DHT22;57248;47.320;15.998;2022-10-16T10:08:03;28.39;40.90
69938;DHT22;57248;47.320;15.998;2022-10-16T10:10:42;29.42;38.79
69938;DHT22;57248;47.320;15.998;2022-10-16T10:13:22;28.12;41.87
69938;DHT22;57248;47.320;15.998;2022-10-16T10:15:55;29.96;38.95
69938;DHT22;57248;47.320;15.998;2022-10-16T10:18:27;28.52;39.63
69938;DHT22;57248;47.320;15.998;2022-10-16T10:21:01;27.70;39.97
69938;DHT22;57248;47.320;15.998;2022-10-16T10:23:33;28.46;39.13
69938;DHT22;57248;47.320;15.998;2022-10-16T10:26:18;27.67;40.79
69938;DHT22;57248;47.320;15.998;2022-10-16T10:34:26;28.42;40.13
69938;DHT22;57248;47.320;15.998;2022-10-16T10:37:35;30.79;35.93
69938;DHT22;57248;47.320;15.998;2022-10-16T10:43:37;29.96;37.60
69938;DHT22;57248;47.320;15.998;2022-10-16T10:49:22;30.00;38.54
69938;DHT22;57248;47.320;15.998;2022-10-16T10:55:00;29.25;38.60
69938;DHT22;57248;47.320;15.998;2022-10-16T11:06:58;32.38;34.61
69938;DHT22;57248;47.320;15.998;2022-10-16T11:09:38;29.28;37.42
69938;DHT22;57248;47.320;15.998;2022-10-16T11:12:17;31.12;35.68
69938;DHT22;57248;47.320;15.998;2022-10-16T11:14:58;32.10;34.42
69938;DHT22;57248;47.320;15.998;2022-10-16T11:17:39;30.99;36.01
69938;DHT22;57248;47.320;15.998;2022-10-16T11:20:28;31.16;35.51
69938;DHT22;57248;47.320;15.998;2022-10-16T11:23:06;30.50;36.62
69938;DHT22;57248;47.320;15.998;2022-10-16T11:25:43;29.25;37.50
69938;DHT22;57248;47.320;15.998;2022-10-16T11:28:19;32.10;34.35
69938;DHT22;57248;47.320;15.998;2022-10-16T11:31:02;30.91;35.55
69938;DHT22;57248;47.320;15.998;2022-10-16T11:36:19;31.84;35.41
69938;DHT22;57248;47.320;15.998;2022-10-16T11:39:00;29.57;37.41
69938;DHT22;57248;47.320;15.998;2022-10-16T11:44:39;33.12;33.32
69938;DHT22;57248;47.320;15.998;2022-10-16T11:49:59;32.04;37.10
69938;DHT22;57248;47.320;15.998;2022-10-16T11:52:53;32.49;35.44
69938;DHT22;57248;47.320;15.998;2022-10-16T11:55:43;31.42;36.48
69938;DHT22;57248;47.320;15.998;2022-10-16T12:06:52;30.16;38.76
69938;DHT22;57248;47.320;15.998;2022-10-16T12:09:30;31.76;36.97
69938;DHT22;57248;47.320;15.998;2022-10-16T12:12:03;31.30;37.01
69938;DHT22;57248;47.320;15.998;2022-10-16T12:14:37;31.90;36.88
69938;DHT22;57248;47.320;15.998;2022-10-16T12:17:35;30.98;37.62
69938;DHT22;57248;47.320;15.998;2022-10-16T12:23:00;29.98;38.95
69938;DHT22;57248;47.320;15.998;2022-10-16T12:25:37;31.36;36.95
69938;DHT22;57248;47.320;15.998;2022-10-16T12:28:20;31.91;36.68
69938;DHT22;57248;47.320;15.998;2022-10-16T12:30:55;31.53;37.04
69938;DHT22;57248;47.320;15.998;2022-10-16T12:33:30;29.71;40.05
69938;DHT22;57248;47.320;15.998;2022-10-16T12:36:26;29.98;38.99
69938;DHT22;57248;47.320;15.998;2022-10-16T12:39:00;30.82;38.31
69938;DHT22;57248;47.320;15.998;2022-10-16T12:41:36;31.62;37.12
69938;DHT22;57248;47.320;15.998;2022-10-16T12:44:23;33.12;35.21
69938;DHT22;57248;47.320;15.998;2022-10-16T12:46:55;30.60;37.94
69938;DHT22;57248;47.320;15.998;2022-10-16T12:51:59;30.10;39.58
69938;DHT22;57248;47.320;15.998;2022-10-16T12:54:38;29.14;40.72
69938;DHT22;57248;47.320;15.998;2022-10-16T12:57:35;29.04;40.98
69938;DHT22;57248;47.320;15.998;2022-10-16T13:00:26;30.60;38.63
69938;DHT22;57248;47.320;15.998;2022-10-16T13:07:26;29.99;39.66
69938;DHT22;57248;47.320;15.998;2022-10-16T13:15:01;31.45;36.69
69938;DHT22;57248;47.320;15.998;2022-10-16T13:17:51;29.17;40.10
69938;DHT22;57248;47.320;15.998;2022-10-16T13:20:30;29.71;39.26
69938;DHT22;57248;47.320;15.998;2022-10-16T13:26:36;30.65;38.11
69938;DHT22;57248;47.320;15.998;2022-10-16T13:29:13;28.80;41.22
69938;DHT22;57248;47.320;15.998;2022-10-16T13:31:46;29.48;39.82
69938;DHT22;57248;47.320;15.998;2022-10-16T13:34:18;28.90;40.84
69938;DHT22;57248;47.320;15.998;2022-10-16T13:36:52;27.98;42.91
69938;DHT22;57248;47.320;15.998;2022-10-16T13:39:27;28.52;41.82
69938;DHT22;57248;47.320;15.998;2022-10-16T13:44:41;28.12;42.62
69938;DHT22;57248;47.320;15.998;2022-10-16T13:47:16;26.47;46.23
69938;DHT22;57248;47.320;15.998;2022-10-16T13:50:09;27.36;44.89
69938;DHT22;57248;47.320;15.998;2022-10-16T13:52:42;26.76;45.89
69938;DHT22;57248;47.320;15.998;2022-10-16T13:55:17;26.67;45.46
69938;DHT22;57248;47.320;15.998;2022-10-16T13:57:51;26.25;47.27
69938;DHT22;57248;47.320;15.998;2022-10-16T14:00:26;27.50;45.51
69938;DHT22;57248;47.320;15.998;2022-10-16T14:03:04;26.86;45.96
69938;DHT22;57248;47.320;15.998;2022-10-16T14:08:28;26.16;46.97
69938;DHT22;57248;47.320;15.998;2022-10-16T14:11:01;26.04;48.22
69938;DHT22;57248;47.320;15.998;2022-10-16T14:13:44;25.75;48.80
69938;DHT22;57248;47.320;15.998;2022-10-16T14:16:21;25.56;49.28
69938;DHT22;57248;47.320;15.998;2022-10-16T14:19:00;26.61;47.19
69938;DHT22;57248;47.320;15.998;2022-10-16T14:21:35;25.49;48.89
69938;DHT22;57248;47.320;15.998;2022-10-16T14:24:24;24.81;48.85
69938;DHT22;57248;47.320;15.998;2022-10-16T14:26:57;24.68;49.77
69938;DHT22;57248;47.320;15.998;2022-10-16T14:29:30;24.47;50.16
69938;DHT22;57248;47.320;15.998;2022-10-16T14:32:22;24.35;49.98
69938;DHT22;57248;47.320;15.998;2022-10-16T14:34:54;24.44;49.72
69938;DHT22;57248;47.320;15.998;2022-10-16T14:37:40;23.81;49.82
69938;DHT22;57248;47.320;15.998;2022-10-16T14:40:23;23.67;51.51
69938;DHT22;57248;47.320;15.998;2022-10-16T14:43:03;22.79;53.18
69938;DHT22;57248;47.320;15.998;2022-10-16T14:45:35;22.80;53.43
69938;DHT22;57248;47.320;15.998;2022-10-16T14:48:16;23.02;53.47
69938;DHT22;57248;47.320;15.998;2022-10-16T14:50:48;22.72;54.17
69938;DHT22;57248;47.320;15.998;2022-10-16T14:53:21;22.79;54.07
69938;DHT22;57248;47.320;15.998;2022-10-16T14:55:52;22.49;55.07
69938;DHT22;57248;47.320;15.998;2022-10-16T14:58:26;21.97;56.72
69938;DHT22;57248;47.320;15.998;2022-10-16T15:00:57;21.91;57.08
69938;DHT22;57248;47.320;15.998;2022-10-16T15:03:30;22.04;57.74
69938;DHT22;57248;47.320;15.998;2022-10-16T15:06:11;22.12;57.12
69938;DHT22;57248;47.320;15.998;2022-10-16T15:08:43;21.94;57.47
69938;DHT22;57248;47.320;15.998;2022-10-16T15:11:17;21.76;58.40
69938;DHT22;57248;47.320;15.998;2022-10-16T15:13:49;21.90;57.80
69938;DHT22;57248;47.320;15.998;2022-10-16T15:16:21;21.69;57.98
69938;DHT22;57248;47.320;15.998;2022-10-16T15:18:53;21.81;58.80
69938;DHT22;57248;47.320;15.998;2022-10-16T15:21:30;21.52;58.58
69938;DHT22;57248;47.320;15.998;2022-10-16T15:24:02;20.80;59.93
69938;DHT22;57248;47.320;15.998;2022-10-16T15:26:34;20.96;59.93
69938;DHT22;57248;47.320;15.998;2022-10-16T15:29:07;20.71;61.38
69938;DHT22;57248;47.320;15.998;2022-10-16T15:31:39;20.40;62.24
69938;DHT22;57248;47.320;15.998;2022-10-16T15:34:13;20.34;62.35
69938;DHT22;57248;47.320;15.998;2022-10-16T15:36:45;20.41;62.23
69938;DHT22;57248;47.320;15.998;2022-10-16T15:39:19;20.24;62.65
69938;DHT22;57248;47.320;15.998;2022-10-16T15:41:50;20.16;62.88
69938;DHT22;57248;47.320;15.998;2022-10-16T15:44:24;20.05;63.14
69938;DHT22;57248;47.320;15.998;2022-10-16T15:47:01;20.05;63.08
69938;DHT22;57248;47.320;15.998;2022-10-16T15:49:33;19.85;63.64
69938;DHT22;57248;47.320;15.998;2022-10-16T15:52:07;19.65;64.35
69938;DHT22;57248;47.320;15.998;2022-10-16T15:54:38;19.55;65.10
69938;DHT22;57248;47.320;15.998;2022-10-16T15:57:11;19.47;65.45
69938;DHT22;57248;47.320;15.998;2022-10-16T15:59:43;19.14;66.96
69938;DHT22;57248;47.320;15.998;2022-10-16T16:02:17;18.97;67.76
69938;DHT22;57248;47.320;15.998;2022-10-16T16:04:48;19.04;69.34
69938;DHT22;57248;47.320;15.998;2022-10-16T16:07:20;18.66;68.81
69938;DHT22;57248;47.320;15.998;2022-10-16T16:09:59;18.59;68.79
69938;DHT22;57248;47.320;15.998;2022-10-16T16:12:34;18.36;69.40
69938;DHT22;57248;47.320;15.998;2022-10-16T16:15:08;18.18;69.96
69938;DHT22;57248;47.320;15.998;2022-10-16T16:17:40;18.18;69.97
69938;DHT22;57248;47.320;15.998;2022-10-16T16:20:12;18.29;69.38
69938;DHT22;57248;47.320;15.998;2022-10-16T16:22:44;17.93;70.77
69938;DHT22;57248;47.320;15.998;2022-10-16T16:25:17;17.85;70.70
69938;DHT22;57248;47.320;15.998;2022-10-16T16:27:49;18.00;69.94
69938;DHT22;57248;47.320;15.998;2022-10-16T16:30:20;17.83;70.46
69938;DHT22;57248;47.320;15.998;2022-10-16T16:32:52;17.70;70.37
69938;DHT22;57248;47.320;15.998;2022-10-16T16:35:24;17.47;71.27
69938;DHT22;57248;47.320;15.998;2022-10-16T16:37:57;17.32;71.73
69938;DHT22;57248;47.320;15.998;2022-10-16T16:40:30;17.08;72.98
69938;DHT22;57248;47.320;15.998;2022-10-16T16:43:03;17.01;73.17
69938;DHT22;57248;47.320;15.998;2022-10-16T16:45:35;16.79;73.04
69938;DHT22;57248;47.320;15.998;2022-10-16T16:48:10;16.65;73.47
69938;DHT22;57248;47.320;15.998;2022-10-16T16:50:43;16.79;72.76
69938;DHT22;57248;47.320;15.998;2022-10-16T16:53:14;16.82;72.88
69938;DHT22;57248;47.320;15.998;2022-10-16T16:55:47;16.60;72.87
69938;DHT22;57248;47.320;15.998;2022-10-16T16:58:18;16.47;73.00
69938;DHT22;57248;47.320;15.998;2022-10-16T17:00:50;16.46;72.73
69938;DHT22;57248;47.320;15.998;2022-10-16T17:03:23;16.36;72.75
69938;DHT22;57248;47.320;15.998;2022-10-16T17:06:07;16.07;74.04
69938;DHT22;57248;47.320;15.998;2022-10-16T17:08:40;15.78;74.83
69938;DHT22;57248;47.320;15.998;2022-10-16T17:11:25;15.72;74.56
69938;DHT22;57248;47.320;15.998;2022-10-16T17:13:59;15.73;74.41
69938;DHT22;57248;47.320;15.998;2022-10-16T17:16:34;15.59;75.19
69938;DHT22;57248;47.320;15.998;2022-10-16T17:19:10;15.26;77.03
69938;DHT22;57248;47.320;15.998;2022-10-16T17:21:43;15.44;75.43
69938;DHT22;57248;47.320;15.998;2022-10-16T17:24:15;15.30;75.17
69938;DHT22;57248;47.320;15.998;2022-10-16T17:26:47;15.12;75.70
69938;DHT22;57248;47.320;15.998;2022-10-16T17:29:22;14.77;77.85
69938;DHT22;57248;47.320;15.998;2022-10-16T17:31:55;14.79;77.38
69938;DHT22;57248;47.320;15.998;2022-10-16T17:34:28;14.84;76.48
69938;DHT22;57248;47.320;15.998;2022-10-16T17:37:00;14.83;76.63
69938;DHT22;57248;47.320;15.998;2022-10-16T17:39:32;14.65;77.43
69938;DHT22;57248;47.320;15.998;2022-10-16T17:42:03;14.42;78.40
69938;DHT22;57248;47.320;15.998;2022-10-16T17:44:35;14.46;77.85
69938;DHT22;57248;47.320;15.998;2022-10-16T17:47:11;14.35;78.23